Time;durP1;ratioP1;P1;durP2;ratioP2;P2;SDS_P1;SDS_P2;PMS_P1;PMS_P2;Temp;Humidity;BMP_temperature;BMP_pressure;BME280_temperature;BME280_humidity;BME280_pressure;Samples;Min_cycle;Max_cycle;Signal;HPM_P1;HPM_P2
2021/12/06 00:01:21;;;;;;;39.22;24.63;;;6.30;99.90;;;;;;5015102;28;20034;-73
2021/12/06 00:03:52;;;;;;;36.58;22.73;;;6.30;99.90;;;;;;5015426;28;20034;-73
2021/12/06 00:06:25;;;;;;;36.83;23.13;;;6.30;99.90;;;;;;5015538;28;20076;-73
2021/12/06 00:08:51;;;;;;;32.83;20.00;;;6.30;99.90;;;;;;5015565;28;20030;-73
2021/12/06 00:11:17;;;;;;;33.25;20.58;;;6.30;99.90;;;;;;5015354;28;20318;-73
2021/12/06 00:13:46;;;;;;;31.98;21.13;;;6.30;99.90;;;;;;5015405;28;20104;-73
2021/12/06 00:16:18;;;;;;;34.58;22.55;;;6.30;99.90;;;;;;5014841;28;20045;-73
2021/12/06 00:18:48;;;;;;;31.92;21.85;;;6.30;99.90;;;;;;5015554;28;20376;-73
2021/12/06 00:21:15;;;;;;;31.60;20.77;;;6.20;99.90;;;;;;5015341;28;20480;-73
2021/12/06 00:23:41;;;;;;;32.92;21.70;;;6.30;99.90;;;;;;5015441;28;20861;-70
2021/12/06 00:26:11;;;;;;;32.58;21.73;;;6.30;99.90;;;;;;5015225;28;20096;-73
2021/12/06 00:28:42;;;;;;;35.15;21.48;;;6.30;99.90;;;;;;5015029;28;20033;-73
2021/12/06 00:31:08;;;;;;;31.23;20.90;;;6.30;99.90;;;;;;5015203;28;20132;-73
2021/12/06 00:33:34;;;;;;;31.13;20.42;;;6.30;99.90;;;;;;5030258;28;20052;-73
2021/12/06 00:36:04;;;;;;;28.65;19.48;;;6.20;99.90;;;;;;5015014;28;20080;-74
2021/12/06 00:38:33;;;;;;;29.40;19.85;;;6.20;99.90;;;;;;5030215;28;20026;-74
2021/12/06 00:40:59;;;;;;;29.10;19.52;;;6.20;99.90;;;;;;5029005;28;20025;-74
2021/12/06 00:43:25;;;;;;;29.35;19.63;;;6.20;99.90;;;;;;5014727;28;20080;-72
2021/12/06 00:45:51;;;;;;;28.58;18.67;;;6.20;99.90;;;;;;5010450;28;20030;-73
2021/12/06 00:48:17;;;;;;;29.05;19.70;;;6.30;99.90;;;;;;4993761;28;20550;-68
2021/12/06 00:50:44;;;;;;;31.35;19.33;;;6.20;99.90;;;;;;4993418;28;20038;-71
2021/12/06 00:53:11;;;;;;;30.20;20.52;;;6.20;99.90;;;;;;4993798;28;20392;-73
2021/12/06 00:55:37;;;;;;;32.05;21.75;;;6.20;99.90;;;;;;4992783;28;20080;-69
2021/12/06 00:58:04;;;;;;;32.20;20.77;;;6.10;99.90;;;;;;4991846;28;20048;-72
2021/12/06 01:00:45;;;;;;;29.60;20.35;;;6.10;99.90;;;;;;4990213;28;20039;-73
2021/12/06 01:03:16;;;;;;;32.28;19.85;;;6.20;99.90;;;;;;5009898;28;20030;-73
2021/12/06 01:05:45;;;;;;;28.00;18.40;;;6.20;99.90;;;;;;5007737;28;20030;-73
2021/12/06 01:08:11;;;;;;;28.48;18.02;;;6.10;99.90;;;;;;4993341;28;20019;-71
2021/12/06 01:10:38;;;;;;;26.30;17.25;;;6.10;99.90;;;;;;4992925;28;20040;-73
2021/12/06 01:13:04;;;;;;;25.73;16.73;;;6.20;99.90;;;;;;4993333;28;20019;-73
2021/12/06 01:15:33;;;;;;;24.08;16.23;;;6.10;99.90;;;;;;4991510;28;20100;-72
2021/12/06 01:18:01;;;;;;;28.33;19.40;;;6.10;99.90;;;;;;4993288;28;20026;-73
2021/12/06 01:20:34;;;;;;;27.08;17.55;;;6.20;99.90;;;;;;5006252;28;20035;-73
2021/12/06 01:23:09;;;;;;;26.45;16.77;;;6.20;99.90;;;;;;5007976;28;20037;-73
2021/12/06 01:39:18;;;;;;;24.02;16.10;;;6.10;99.90;;;;;;4913185;29;20032;-72
2021/12/06 01:41:50;;;;;;;26.83;17.63;;;6.20;99.90;;;;;;4897952;29;20525;-73
2021/12/06 01:44:24;;;;;;;25.50;16.70;;;6.10;99.90;;;;;;4912809;29;20499;-72
2021/12/06 01:47:12;;;;;;;27.23;17.75;;;6.10;99.90;;;;;;4913218;29;20861;-72
2021/12/06 01:49:56;;;;;;;25.42;16.85;;;6.10;99.90;;;;;;4913385;29;20090;-72
2021/12/06 01:52:31;;;;;;;24.65;16.35;;;6.10;99.90;;;;;;4897970;29;20056;-73
2021/12/06 01:54:58;;;;;;;27.98;17.45;;;6.10;99.90;;;;;;4895294;29;20610;-72
2021/12/06 01:57:26;;;;;;;28.70;18.40;;;6.10;99.90;;;;;;4895615;29;20069;-72
2021/12/06 01:59:53;;;;;;;28.90;18.85;;;6.10;99.90;;;;;;4895268;29;20029;-73
2021/12/06 02:02:20;;;;;;;27.55;17.88;;;6.10;99.90;;;;;;4895133;29;20040;-72
2021/12/06 02:04:47;;;;;;;28.83;19.25;;;6.20;99.90;;;;;;4895157;29;21092;-72
2021/12/06 02:07:17;;;;;;;29.17;18.48;;;6.10;99.90;;;;;;4899877;29;20040;-73
2021/12/06 02:09:47;;;;;;;24.38;16.77;;;6.10;99.90;;;;;;4932589;28;20094;-72
2021/12/06 02:12:15;;;;;;;24.42;16.40;;;6.10;99.90;;;;;;5007425;28;20117;-72
2021/12/06 02:17:24;;;;;;;25.83;16.63;;;6.00;99.90;;;;;;4991189;28;20042;-73
2021/12/06 02:19:54;;;;;;;25.55;17.52;;;6.00;99.90;;;;;;4992253;28;20022;-73
2021/12/06 02:22:24;;;;;;;28.02;18.38;;;6.00;99.90;;;;;;4990691;28;20031;-73
2021/12/06 02:24:53;;;;;;;27.38;17.05;;;6.00;99.90;;;;;;4987747;28;20026;-74
2021/12/06 02:27:21;;;;;;;28.48;17.48;;;6.00;99.90;;;;;;5007431;28;20042;-72
2021/12/06 02:29:50;;;;;;;29.20;17.88;;;6.00;99.90;;;;;;5007236;28;20029;-73
2021/12/06 02:32:16;;;;;;;27.00;17.67;;;6.00;99.90;;;;;;5007101;28;20042;-71
2021/12/06 02:34:46;;;;;;;29.10;17.95;;;5.90;99.90;;;;;;4992557;28;20018;-73
2021/12/06 02:37:15;;;;;;;28.65;18.40;;;5.90;99.90;;;;;;5007426;28;20113;-72
2021/12/06 02:39:41;;;;;;;33.60;19.85;;;5.90;99.90;;;;;;4990859;28;20022;-72
2021/12/06 02:42:11;;;;;;;32.20;19.58;;;5.90;99.90;;;;;;5007312;28;20037;-72
2021/12/06 02:44:38;;;;;;;28.25;17.92;;;5.80;99.90;;;;;;5006935;28;20026;-72
2021/12/06 02:47:05;;;;;;;29.48;18.70;;;5.80;99.90;;;;;;4992255;28;20019;-73
2021/12/06 02:49:32;;;;;;;28.70;18.65;;;5.90;99.90;;;;;;5007132;28;20366;-72
2021/12/06 02:51:58;;;;;;;28.17;18.10;;;5.80;99.90;;;;;;5006960;28;20039;-72
2021/12/06 02:54:25;;;;;;;31.08;20.27;;;5.80;99.90;;;;;;5004509;28;20041;-72
2021/12/06 02:56:56;;;;;;;31.92;20.60;;;5.80;99.90;;;;;;4992296;28;20080;-71
2021/12/06 02:59:25;;;;;;;31.65;21.05;;;5.80;99.90;;;;;;4991174;28;20037;-72
2021/12/06 03:01:57;;;;;;;30.17;18.98;;;5.80;99.90;;;;;;5006795;28;20530;-72
2021/12/06 03:04:24;;;;;;;34.07;20.17;;;5.80;99.90;;;;;;5009356;28;20392;-72
2021/12/06 03:06:54;;;;;;;28.92;19.05;;;5.80;99.90;;;;;;5010711;28;20483;-71
2021/12/06 03:09:25;;;;;;;31.10;19.20;;;5.80;99.90;;;;;;4995382;28;20022;-72
2021/12/06 03:11:53;;;;;;;30.83;20.15;;;5.70;99.90;;;;;;5010578;28;20488;-72
2021/12/06 03:14:31;;;;;;;30.38;20.25;;;5.70;99.90;;;;;;4994223;28;20126;-73
2021/12/06 03:17:04;;;;;;;31.73;20.15;;;5.70;99.90;;;;;;4994243;28;20038;-72
2021/12/06 03:19:30;;;;;;;29.63;19.52;;;5.70;99.90;;;;;;5010524;28;20382;-69
2021/12/06 03:21:56;;;;;;;28.88;19.02;;;5.70;99.90;;;;;;4994116;28;20034;-73
2021/12/06 03:24:23;;;;;;;28.70;18.58;;;5.70;99.90;;;;;;5010582;28;20034;-74
2021/12/06 03:26:49;;;;;;;33.05;19.02;;;5.60;99.90;;;;;;4995449;28;20018;-73
2021/12/06 03:29:16;;;;;;;29.80;18.35;;;5.60;99.90;;;;;;5010551;28;20026;-71
2021/12/06 03:31:42;;;;;;;26.75;17.85;;;5.60;99.90;;;;;;4993643;28;20037;-70
2021/12/06 03:34:09;;;;;;;29.58;18.48;;;5.60;99.90;;;;;;4993698;28;20061;-73
2021/12/06 03:36:38;;;;;;;30.42;18.23;;;5.70;99.90;;;;;;5007277;28;20484;-73
2021/12/06 03:39:10;;;;;;;29.73;17.63;;;5.60;99.90;;;;;;4993760;28;20396;-73
2021/12/06 03:41:36;;;;;;;28.10;18.45;;;5.60;99.90;;;;;;5010225;28;20045;-73
2021/12/06 03:44:02;;;;;;;27.23;17.00;;;5.70;99.90;;;;;;5009750;28;20018;-72
2021/12/06 03:46:30;;;;;;;27.98;17.60;;;5.70;99.90;;;;;;4992537;28;20500;-71
2021/12/06 03:48:56;;;;;;;24.45;15.88;;;5.60;99.90;;;;;;4993239;28;20031;-73
2021/12/06 03:51:23;;;;;;;27.80;16.67;;;5.60;99.90;;;;;;4993585;28;20043;-73
2021/12/06 03:53:49;;;;;;;26.15;16.90;;;5.60;99.90;;;;;;4994801;28;20019;-73
2021/12/06 03:56:16;;;;;;;25.10;16.65;;;5.60;99.90;;;;;;4993981;28;20444;-72
2021/12/06 03:58:47;;;;;;;26.23;17.35;;;5.60;99.90;;;;;;4993251;28;20548;-73
2021/12/06 04:01:13;;;;;;;25.77;16.40;;;5.50;99.90;;;;;;4994351;28;20034;-73
2021/12/06 04:03:42;;;;;;;27.33;16.60;;;5.60;99.90;;;;;;5006291;28;20043;-73
2021/12/06 04:06:09;;;;;;;24.27;15.35;;;5.60;99.90;;;;;;5009540;28;20064;-73
2021/12/06 04:08:35;;;;;;;25.60;15.63;;;5.60;99.90;;;;;;5009122;28;20370;-70
2021/12/06 04:11:02;;;;;;;28.42;17.00;;;5.50;99.90;;;;;;4993008;28;20030;-74
2021/12/06 04:13:32;;;;;;;27.02;17.23;;;5.50;99.90;;;;;;5006906;28;20060;-72
2021/12/06 04:15:58;;;;;;;27.52;17.02;;;5.50;99.90;;;;;;5008627;28;20046;-73
2021/12/06 04:18:24;;;;;;;30.88;16.60;;;5.60;99.90;;;;;;5008295;28;20031;-73
2021/12/06 04:20:51;;;;;;;25.95;17.13;;;5.60;99.90;;;;;;5007501;28;20643;-71
2021/12/06 04:23:20;;;;;;;30.73;18.27;;;5.60;99.90;;;;;;5008989;28;20049;-74
2021/12/06 04:25:48;;;;;;;31.90;18.75;;;5.60;99.90;;;;;;4992758;28;20026;-73
2021/12/06 04:28:18;;;;;;;32.78;20.15;;;5.60;99.90;;;;;;5009104;28;20033;-73
2021/12/06 04:30:47;;;;;;;30.17;19.40;;;5.70;99.90;;;;;;5008950;28;20089;-73
2021/12/06 04:33:14;;;;;;;30.15;18.73;;;5.60;99.90;;;;;;5008914;28;20531;-74
2021/12/06 04:35:43;;;;;;;30.98;16.90;;;5.70;99.90;;;;;;5008709;28;20380;-73
2021/12/06 04:38:11;;;;;;;27.95;17.23;;;5.70;99.90;;;;;;5009118;28;20029;-73
2021/12/06 04:40:38;;;;;;;27.00;18.25;;;5.60;99.90;;;;;;4992448;28;20121;-73
2021/12/06 04:43:04;;;;;;;26.73;16.30;;;5.60;99.90;;;;;;5008300;28;20018;-73
2021/12/06 04:45:31;;;;;;;26.60;16.88;;;5.60;99.90;;;;;;5008388;28;20080;-72
2021/12/06 04:47:58;;;;;;;26.67;16.15;;;5.60;99.90;;;;;;4993420;28;20022;-73
2021/12/06 04:50:27;;;;;;;28.90;17.83;;;5.60;99.90;;;;;;4992467;28;20057;-72
2021/12/06 04:52:56;;;;;;;28.38;17.35;;;5.60;99.90;;;;;;5008687;28;20488;-72
2021/12/06 04:55:34;;;;;;;26.85;16.48;;;5.60;99.90;;;;;;4993710;28;20026;-72
2021/12/06 04:58:00;;;;;;;31.48;16.92;;;5.50;99.90;;;;;;4992357;28;20026;-73
2021/12/06 05:00:29;;;;;;;22.55;15.20;;;5.50;99.90;;;;;;5008378;28;20101;-72
2021/12/06 05:02:56;;;;;;;26.50;16.42;;;5.50;99.90;;;;;;4992999;28;20018;-72
2021/12/06 05:05:32;;;;;;;25.25;15.95;;;5.50;99.90;;;;;;5007955;28;20069;-73
2021/12/06 05:08:04;;;;;;;24.23;14.82;;;5.50;99.90;;;;;;4992791;28;20033;-72
2021/12/06 05:10:30;;;;;;;22.67;14.20;;;5.60;99.90;;;;;;4992592;28;20030;-72
2021/12/06 05:12:56;;;;;;;22.42;13.20;;;5.60;99.90;;;;;;4992803;28;20026;-72
2021/12/06 05:15:24;;;;;;;19.13;12.18;;;5.60;99.90;;;;;;5007827;28;20502;-72
2021/12/06 05:17:50;;;;;;;17.42;10.77;;;5.50;99.90;;;;;;5008050;28;20034;-72
2021/12/06 05:20:17;;;;;;;18.88;12.05;;;5.50;99.90;;;;;;4992704;28;20049;-72
2021/12/06 05:22:46;;;;;;;19.65;11.48;;;5.50;99.90;;;;;;5007801;28;20069;-71
2021/12/06 05:25:14;;;;;;;20.45;12.45;;;5.50;99.90;;;;;;4993170;28;20073;-72
2021/12/06 05:27:41;;;;;;;15.57;10.40;;;5.30;99.90;;;;;;4992147;28;20026;-72
2021/12/06 05:30:11;;;;;;;17.95;10.48;;;5.30;99.90;;;;;;4993092;28;20038;-72
2021/12/06 05:32:38;;;;;;;18.38;10.68;;;5.20;99.90;;;;;;4991764;28;20045;-73
2021/12/06 05:35:07;;;;;;;20.55;11.88;;;5.20;99.90;;;;;;4993883;28;20034;-72
2021/12/06 05:37:36;;;;;;;19.25;11.10;;;5.20;99.90;;;;;;4993858;28;20437;-73
2021/12/06 05:40:06;;;;;;;17.95;11.20;;;5.10;99.90;;;;;;4994212;28;20034;-74
2021/12/06 05:42:32;;;;;;;19.98;12.40;;;5.10;99.90;;;;;;4993929;28;20366;-74
2021/12/06 05:44:58;;;;;;;19.42;12.13;;;5.10;99.90;;;;;;4993373;28;20029;-74
2021/12/06 05:47:24;;;;;;;23.42;13.15;;;5.00;99.90;;;;;;4993186;28;20172;-75
2021/12/06 05:49:50;;;;;;;20.00;12.77;;;5.00;99.90;;;;;;4993751;28;20034;-74
2021/12/06 05:52:16;;;;;;;22.25;14.45;;;5.00;99.90;;;;;;4993335;28;20042;-74
2021/12/06 05:54:42;;;;;;;25.15;16.23;;;5.00;99.90;;;;;;4993852;28;20104;-74
2021/12/06 05:57:10;;;;;;;21.95;13.32;;;4.90;99.90;;;;;;4993672;28;20420;-73
2021/12/06 05:59:37;;;;;;;27.60;17.63;;;4.90;99.90;;;;;;4994136;28;20022;-74
2021/12/06 06:02:04;;;;;;;21.27;13.95;;;4.90;99.90;;;;;;4993343;28;20609;-74
2021/12/06 06:04:30;;;;;;;24.80;15.88;;;4.90;99.90;;;;;;4993612;28;20374;-74
2021/12/06 06:06:56;;;;;;;18.73;11.73;;;4.90;99.90;;;;;;5007909;28;20038;-74
2021/12/06 06:09:22;;;;;;;19.92;13.02;;;4.80;99.90;;;;;;4993468;28;20026;-74
2021/12/06 06:11:48;;;;;;;20.20;11.73;;;4.90;99.90;;;;;;4993666;28;20046;-74
2021/12/06 06:14:16;;;;;;;21.00;12.73;;;4.90;99.90;;;;;;4992988;28;20193;-74
2021/12/06 06:16:51;;;;;;;21.58;13.25;;;4.80;99.90;;;;;;4992861;28;20054;-74
2021/12/06 06:19:19;;;;;;;19.00;12.13;;;4.80;99.90;;;;;;4992391;28;20366;-73
2021/12/06 06:21:46;;;;;;;22.05;13.23;;;4.90;99.90;;;;;;4993234;28;20035;-74
2021/12/06 06:24:12;;;;;;;21.00;12.25;;;4.80;99.90;;;;;;4993675;28;20033;-74
2021/12/06 06:26:38;;;;;;;19.90;12.20;;;4.80;99.90;;;;;;4992812;28;20023;-73
2021/12/06 06:29:04;;;;;;;23.70;14.18;;;4.80;99.90;;;;;;4993220;28;20022;-74
2021/12/06 06:31:30;;;;;;;23.83;14.32;;;4.80;99.90;;;;;;4993285;28;20040;-75
2021/12/06 06:33:56;;;;;;;20.35;13.07;;;4.80;99.90;;;;;;4993404;28;20080;-74
2021/12/06 06:36:22;;;;;;;24.52;15.32;;;4.80;99.90;;;;;;4993334;28;20035;-74
2021/12/06 06:38:48;;;;;;;22.77;14.52;;;4.70;99.90;;;;;;4994726;28;20068;-74
2021/12/06 06:41:14;;;;;;;23.98;14.75;;;4.80;99.90;;;;;;4997559;28;20031;-74
2021/12/06 06:43:39;;;;;;;29.70;17.77;;;4.70;99.90;;;;;;4996207;28;20429;-74
2021/12/06 06:46:06;;;;;;;35.88;21.73;;;4.70;99.90;;;;;;4996782;28;20384;-75
2021/12/06 06:48:33;;;;;;;25.65;16.77;;;4.70;99.90;;;;;;4997000;28;20034;-74
2021/12/06 06:50:59;;;;;;;26.63;17.65;;;4.60;99.90;;;;;;4996548;28;20141;-74
2021/12/06 06:53:26;;;;;;;27.73;16.58;;;4.60;99.90;;;;;;4996979;28;20028;-74
2021/12/06 06:55:53;;;;;;;30.33;21.33;;;4.60;99.90;;;;;;4997000;28;20033;-74
2021/12/06 06:58:19;;;;;;;32.20;21.40;;;4.60;99.90;;;;;;4996549;28;20023;-73
2021/12/06 07:00:45;;;;;;;31.58;20.20;;;4.60;99.90;;;;;;4996768;28;20038;-75
2021/12/06 07:03:11;;;;;;;32.95;21.95;;;4.60;99.90;;;;;;4996682;28;20018;-74
2021/12/06 07:05:38;;;;;;;37.78;22.48;;;4.70;99.90;;;;;;4995656;28;20535;-75
2021/12/06 07:08:04;;;;;;;27.48;17.30;;;4.60;99.90;;;;;;4996467;28;20022;-75
2021/12/06 07:10:31;;;;;;;36.00;22.58;;;4.60;99.90;;;;;;4996050;28;20027;-74
2021/12/06 07:12:59;;;;;;;28.35;17.20;;;4.60;99.90;;;;;;4996745;28;20037;-75
2021/12/06 07:15:29;;;;;;;33.95;21.73;;;4.60;99.90;;;;;;4996407;28;20075;-74
2021/12/06 07:17:56;;;;;;;28.08;16.55;;;4.60;99.90;;;;;;4996321;28;20065;-72
2021/12/06 07:20:23;;;;;;;30.60;18.63;;;4.50;99.90;;;;;;4995827;28;20041;-75
2021/12/06 07:22:52;;;;;;;29.55;17.83;;;4.50;99.90;;;;;;4996233;28;20547;-74
2021/12/06 07:25:21;;;;;;;29.65;18.42;;;4.50;99.90;;;;;;4995240;28;20026;-75
2021/12/06 07:27:48;;;;;;;29.23;16.95;;;4.50;99.90;;;;;;4995265;28;20476;-71
2021/12/06 07:30:15;;;;;;;25.88;15.50;;;4.50;99.90;;;;;;4995720;28;20473;-74
2021/12/06 07:32:42;;;;;;;26.58;16.08;;;4.50;99.90;;;;;;4995481;28;20041;-73
2021/12/06 07:35:10;;;;;;;30.10;17.00;;;4.60;99.90;;;;;;4994951;28;20030;-74
2021/12/06 07:37:36;;;;;;;28.27;17.77;;;4.60;99.90;;;;;;4994948;28;20018;-75
2021/12/06 07:40:05;;;;;;;36.65;23.08;;;4.50;99.90;;;;;;4994888;28;20065;-74
2021/12/06 07:42:31;;;;;;;37.60;21.02;;;4.50;99.90;;;;;;4995426;28;20074;-74
2021/12/06 07:44:57;;;;;;;36.80;22.80;;;4.50;99.90;;;;;;4993232;28;20538;-74
2021/12/06 07:47:23;;;;;;;41.08;24.90;;;4.40;99.90;;;;;;4994058;28;20102;-74
2021/12/06 07:49:49;;;;;;;34.40;20.80;;;4.40;99.90;;;;;;4994127;28;20037;-75
2021/12/06 07:52:15;;;;;;;28.35;18.88;;;4.30;99.90;;;;;;4995832;28;20104;-74
2021/12/06 07:54:42;;;;;;;33.83;20.73;;;4.40;99.90;;;;;;4995236;28;20056;-75
2021/12/06 07:57:08;;;;;;;36.17;23.38;;;4.40;99.90;;;;;;4995423;28;20037;-74
2021/12/06 07:59:35;;;;;;;38.65;24.38;;;4.50;99.90;;;;;;4995959;28;20031;-75
2021/12/06 08:02:02;;;;;;;40.08;24.98;;;4.50;99.90;;;;;;4995565;28;20068;-75
2021/12/06 08:04:27;;;;;;;34.20;19.77;;;4.50;99.90;;;;;;4995173;28;20030;-75
2021/12/06 08:06:53;;;;;;;38.35;22.70;;;4.50;99.90;;;;;;4995620;28;20039;-75
2021/12/06 08:09:19;;;;;;;28.98;16.95;;;4.50;99.90;;;;;;4995405;28;20030;-74
2021/12/06 08:11:45;;;;;;;28.98;17.23;;;4.50;99.90;;;;;;4994628;28;20034;-74
2021/12/06 08:14:11;;;;;;;28.63;18.75;;;4.60;99.90;;;;;;4994982;28;20022;-75
2021/12/06 08:16:42;;;;;;;28.70;18.10;;;4.50;99.90;;;;;;4995097;28;20116;-74
2021/12/06 08:19:10;;;;;;;27.23;18.75;;;4.60;99.90;;;;;;4995016;28;20072;-74
2021/12/06 08:21:36;;;;;;;28.80;17.55;;;4.50;99.90;;;;;;4995260;28;20110;-74
2021/12/06 08:24:04;;;;;;;27.00;15.60;;;4.50;99.90;;;;;;4995386;28;20515;-74
2021/12/06 08:26:34;;;;;;;25.90;13.52;;;4.50;99.90;;;;;;4995514;28;20029;-74
2021/12/06 08:29:05;;;;;;;26.85;16.98;;;4.40;99.90;;;;;;4994715;28;20101;-75
2021/12/06 08:31:31;;;;;;;26.75;15.18;;;4.40;99.90;;;;;;4995305;28;20065;-74
2021/12/06 08:33:57;;;;;;;25.70;14.95;;;4.50;99.90;;;;;;4994881;28;20038;-72
2021/12/06 08:36:25;;;;;;;21.85;14.23;;;4.40;99.90;;;;;;4995300;28;20041;-74
2021/12/06 08:38:52;;;;;;;23.40;14.45;;;4.40;99.90;;;;;;4995041;28;20034;-74
2021/12/06 08:41:22;;;;;;;26.67;15.80;;;4.40;99.90;;;;;;4992781;28;20034;-75
2021/12/06 08:43:49;;;;;;;24.33;14.85;;;4.40;99.90;;;;;;4991077;28;20477;-73
2021/12/06 08:46:16;;;;;;;27.25;17.02;;;4.40;99.90;;;;;;4992860;28;20030;-75
2021/12/06 08:48:44;;;;;;;24.52;13.85;;;4.40;99.90;;;;;;4994007;28;20022;-74
2021/12/06 08:51:20;;;;;;;23.40;14.63;;;4.40;99.90;;;;;;4995030;28;20145;-74
2021/12/06 08:53:49;;;;;;;23.88;13.45;;;4.40;99.90;;;;;;4992938;28;20117;-73
2021/12/06 08:56:15;;;;;;;24.98;15.15;;;4.30;99.90;;;;;;4992511;28;20494;-74
2021/12/06 08:58:42;;;;;;;24.98;15.82;;;4.40;99.90;;;;;;4994747;28;20054;-74
2021/12/06 09:01:09;;;;;;;24.27;15.30;;;4.40;99.90;;;;;;4993474;28;20494;-73
2021/12/06 09:03:36;;;;;;;22.40;14.77;;;4.40;99.90;;;;;;4994691;28;20037;-74
2021/12/06 09:06:04;;;;;;;25.00;15.27;;;4.30;99.90;;;;;;4994471;28;20091;-74
2021/12/06 09:08:31;;;;;;;24.08;15.23;;;4.30;99.90;;;;;;4993663;28;20374;-74
2021/12/06 09:10:57;;;;;;;24.02;15.70;;;4.40;99.90;;;;;;4992661;28;20036;-74
2021/12/06 09:13:26;;;;;;;27.67;17.42;;;4.40;99.90;;;;;;4993900;28;20117;-74
2021/12/06 09:15:53;;;;;;;29.42;20.13;;;4.40;99.90;;;;;;4993760;28;20042;-75
2021/12/06 09:18:20;;;;;;;26.52;18.13;;;4.30;99.90;;;;;;4994042;28;20035;-74
2021/12/06 09:20:48;;;;;;;27.23;17.63;;;4.20;99.90;;;;;;4993955;28;20428;-74
2021/12/06 09:23:15;;;;;;;27.52;18.30;;;4.20;99.90;;;;;;4994043;28;20117;-74
2021/12/06 09:25:42;;;;;;;30.02;20.02;;;4.30;99.90;;;;;;4993568;28;20057;-75
2021/12/06 09:28:10;;;;;;;26.75;16.90;;;4.30;99.90;;;;;;4993202;28;20038;-74
2021/12/06 09:30:37;;;;;;;23.90;14.88;;;4.30;99.90;;;;;;4993767;28;20076;-74
2021/12/06 09:33:06;;;;;;;25.73;15.77;;;4.30;99.90;;;;;;4994010;28;20417;-75
2021/12/06 09:35:34;;;;;;;46.28;27.27;;;4.20;99.90;;;;;;4994194;28;20101;-74
2021/12/06 09:38:00;;;;;;;31.25;19.60;;;4.30;99.90;;;;;;4994172;28;20118;-74
2021/12/06 09:40:28;;;;;;;36.85;21.98;;;4.20;99.90;;;;;;4993764;28;20054;-74
2021/12/06 09:42:56;;;;;;;31.88;19.85;;;4.20;99.90;;;;;;4993911;28;20039;-74
2021/12/06 09:45:27;;;;;;;27.58;15.70;;;4.30;99.90;;;;;;4993561;28;20054;-75
2021/12/06 09:47:54;;;;;;;27.58;15.80;;;4.10;99.90;;;;;;4993243;28;20035;-74
2021/12/06 09:50:32;;;;;;;28.95;15.65;;;4.20;99.90;;;;;;4994011;28;20018;-74
2021/12/06 09:53:02;;;;;;;28.70;16.48;;;4.10;99.90;;;;;;4993139;28;20038;-75
2021/12/06 09:55:29;;;;;;;28.92;17.77;;;4.10;99.90;;;;;;4993176;28;20031;-74
2021/12/06 09:57:56;;;;;;;23.95;14.65;;;4.10;99.90;;;;;;4992951;28;20030;-74
2021/12/06 10:00:25;;;;;;;24.60;15.32;;;4.20;99.90;;;;;;4993817;28;20049;-74
2021/12/06 10:02:53;;;;;;;30.70;18.20;;;4.20;99.90;;;;;;4993449;28;20054;-74
2021/12/06 10:05:20;;;;;;;28.85;18.10;;;4.20;99.90;;;;;;4993578;28;20045;-74
2021/12/06 10:07:46;;;;;;;30.08;18.20;;;4.20;99.90;;;;;;4993642;28;20117;-75
2021/12/06 10:10:14;;;;;;;32.58;19.13;;;4.20;99.90;;;;;;4993655;28;20022;-75
2021/12/06 10:12:42;;;;;;;30.25;19.38;;;4.30;99.90;;;;;;4993226;28;20045;-74
2021/12/06 10:15:09;;;;;;;32.13;19.13;;;4.20;99.90;;;;;;4990904;28;20030;-74
2021/12/06 10:17:35;;;;;;;32.03;20.85;;;4.20;99.90;;;;;;4986407;28;20038;-74
2021/12/06 10:20:02;;;;;;;37.25;22.60;;;4.30;99.90;;;;;;4992964;28;20026;-75
2021/12/06 10:22:28;;;;;;;27.98;17.67;;;4.20;99.90;;;;;;4993074;28;20153;-74
2021/12/06 10:24:58;;;;;;;26.77;16.75;;;4.20;99.90;;;;;;4993280;28;20081;-75
2021/12/06 10:27:24;;;;;;;29.23;18.15;;;4.20;99.90;;;;;;4993300;28;20018;-74
2021/12/06 10:29:59;;;;;;;26.50;17.48;;;4.20;99.90;;;;;;4993364;28;20105;-74
2021/12/06 10:32:28;;;;;;;23.58;16.10;;;4.20;99.90;;;;;;4992632;28;20492;-74
2021/12/06 10:34:58;;;;;;;24.35;15.55;;;4.20;99.90;;;;;;4992961;28;20413;-74
2021/12/06 10:37:30;;;;;;;19.52;12.77;;;4.20;99.90;;;;;;4993297;28;20547;-75
2021/12/06 10:39:56;;;;;;;23.40;15.52;;;4.20;99.90;;;;;;4993195;28;20404;-74
2021/12/06 10:42:34;;;;;;;25.23;15.25;;;4.20;99.90;;;;;;4993154;28;20027;-74
2021/12/06 10:45:21;;;;;;;24.95;16.20;;;4.20;99.90;;;;;;4992642;28;20030;-74
2021/12/06 10:48:06;;;;;;;53.83;29.75;;;4.30;99.90;;;;;;4988130;28;20023;-74
2021/12/06 10:50:32;;;;;;;75.22;43.28;;;4.30;99.90;;;;;;4984697;28;20022;-74
2021/12/06 10:53:00;;;;;;;27.35;17.85;;;4.20;99.90;;;;;;4991828;28;20030;-74
2021/12/06 10:55:30;;;;;;;23.88;14.38;;;4.30;99.90;;;;;;4991817;28;20113;-74
2021/12/06 10:58:10;;;;;;;23.05;14.00;;;4.30;99.90;;;;;;4990354;28;20018;-73
2021/12/06 11:01:01;;;;;;;21.65;13.82;;;4.30;99.90;;;;;;4991557;28;20053;-74
2021/12/06 11:03:28;;;;;;;19.48;12.63;;;4.30;99.90;;;;;;4990944;28;20113;-70
2021/12/06 11:06:02;;;;;;;22.85;14.27;;;4.20;99.90;;;;;;4993268;28;20027;-72
2021/12/06 11:08:30;;;;;;;25.88;16.45;;;4.30;99.90;;;;;;4991915;28;20417;-75
2021/12/06 11:11:00;;;;;;;27.48;18.40;;;4.30;99.90;;;;;;4990434;28;20058;-75
2021/12/06 11:13:35;;;;;;;29.30;18.10;;;4.30;99.90;;;;;;4990879;28;20049;-74
2021/12/06 11:16:12;;;;;;;26.55;16.15;;;4.30;99.90;;;;;;4990703;28;20462;-74
2021/12/06 11:18:46;;;;;;;21.52;13.52;;;4.40;99.90;;;;;;4992449;28;20567;-74
2021/12/06 11:21:20;;;;;;;24.65;15.52;;;4.30;99.90;;;;;;4992587;28;20065;-74
2021/12/06 11:24:20;;;;;;;28.80;18.30;;;4.30;99.90;;;;;;4993038;28;20037;-72
2021/12/06 11:26:52;;;;;;;29.48;18.00;;;4.30;99.90;;;;;;4998343;28;20084;-74
2021/12/06 11:29:18;;;;;;;23.83;16.38;;;4.30;99.90;;;;;;4995404;28;20046;-74
2021/12/06 11:32:10;;;;;;;23.85;15.10;;;4.30;99.90;;;;;;4994971;28;20065;-72
2021/12/06 11:34:50;;;;;;;30.05;19.70;;;4.30;99.90;;;;;;4994795;28;20022;-74
2021/12/06 11:37:21;;;;;;;24.50;15.75;;;4.30;99.90;;;;;;4992766;28;20030;-74
2021/12/06 11:40:10;;;;;;;22.42;14.98;;;4.30;99.90;;;;;;4994429;28;20022;-74
2021/12/06 11:43:03;;;;;;;28.10;18.05;;;4.30;99.90;;;;;;4994500;28;20124;-74
2021/12/06 11:45:35;;;;;;;23.08;13.43;;;4.30;99.90;;;;;;4994498;28;20034;-73
2021/12/06 11:48:05;;;;;;;32.30;20.00;;;4.20;99.90;;;;;;4991705;28;20503;-71
2021/12/06 11:50:31;;;;;;;25.55;16.95;;;4.30;99.90;;;;;;4992144;28;20038;-75
2021/12/06 11:53:03;;;;;;;23.98;15.57;;;4.30;99.90;;;;;;4994784;28;20034;-74
2021/12/06 11:55:29;;;;;;;26.67;17.33;;;4.20;99.90;;;;;;4994656;28;20549;-75
2021/12/06 11:57:55;;;;;;;23.38;15.18;;;4.20;99.90;;;;;;4994575;28;20500;-76
2021/12/06 12:00:24;;;;;;;26.55;16.48;;;4.10;99.90;;;;;;4995127;28;20058;-75
2021/12/06 12:02:54;;;;;;;24.42;17.10;;;4.10;99.90;;;;;;4995723;28;20026;-74
2021/12/06 12:05:31;;;;;;;25.35;16.58;;;4.10;99.90;;;;;;4995983;28;20029;-74
2021/12/06 12:08:11;;;;;;;28.50;16.08;;;4.10;99.90;;;;;;4995285;28;20053;-75
2021/12/06 12:10:47;;;;;;;31.52;20.90;;;4.10;99.90;;;;;;4995635;28;20018;-75
2021/12/06 12:13:29;;;;;;;34.47;22.13;;;4.10;99.90;;;;;;4995636;28;20555;-75
2021/12/06 12:15:58;;;;;;;29.17;19.67;;;4.10;99.90;;;;;;4995238;28;20072;-75
2021/12/06 12:18:25;;;;;;;25.83;16.20;;;4.10;99.90;;;;;;4995265;28;20515;-74
2021/12/06 12:20:54;;;;;;;30.83;17.48;;;4.10;99.90;;;;;;4995253;28;20030;-74
2021/12/06 12:23:21;;;;;;;22.38;15.43;;;4.10;99.90;;;;;;4995433;28;20038;-75
2021/12/06 12:26:05;;;;;;;29.42;16.92;;;4.10;99.90;;;;;;4995755;28;20027;-75
2021/12/06 12:28:40;;;;;;;31.35;18.90;;;4.10;99.90;;;;;;4995018;28;20498;-74
2021/12/06 12:31:09;;;;;;;31.67;20.27;;;4.10;99.90;;;;;;4995216;28;20034;-73
2021/12/06 12:33:36;;;;;;;29.88;18.50;;;4.20;99.90;;;;;;4995327;28;20026;-74
2021/12/06 12:36:09;;;;;;;27.08;17.52;;;4.10;99.90;;;;;;4995489;28;20465;-75
2021/12/06 12:38:38;;;;;;;30.33;18.65;;;4.10;99.90;;;;;;4995069;28;20073;-74
2021/12/06 12:41:10;;;;;;;26.23;17.15;;;4.10;99.90;;;;;;4994030;28;20019;-75
2021/12/06 12:43:43;;;;;;;30.83;17.98;;;4.10;99.90;;;;;;4995150;28;20041;-74
2021/12/06 12:46:25;;;;;;;27.13;17.95;;;4.00;99.90;;;;;;4995399;28;20121;-75
2021/12/06 12:48:59;;;;;;;31.75;21.25;;;4.00;99.90;;;;;;4995019;28;20347;-74
2021/12/06 12:51:30;;;;;;;34.05;22.63;;;4.10;99.90;;;;;;4995022;28;20030;-75
2021/12/06 12:53:56;;;;;;;34.15;20.48;;;4.10;99.90;;;;;;4994439;28;20068;-75
2021/12/06 12:56:33;;;;;;;27.70;17.65;;;4.10;99.90;;;;;;4994900;28;20037;-72
2021/12/06 12:59:19;;;;;;;27.63;18.60;;;4.10;99.90;;;;;;4991593;28;20495;-74
2021/12/06 13:02:11;;;;;;;40.35;21.95;;;4.10;99.90;;;;;;4989114;28;20030;-75